sensor_id;sensor_type;location;lat;lon;timestamp;temperature;humidity
26537;DHT22;14204;51.262;5.488;2023-07-30T00:01:33;19.30;99.90
26537;DHT22;14204;51.262;5.488;2023-07-30T00:03:59;19.30;99.90
26537;DHT22;14204;51.262;5.488;2023-07-30T00:06:25;19.30;99.90
26537;DHT22;14204;51.262;5.488;2023-07-30T00:08:50;19.20;99.90
26537;DHT22;14204;51.262;5.488;2023-07-30T00:11:16;19.20;99.90
26537;DHT22;14204;51.262;5.488;2023-07-30T00:13:42;19.20;99.90
26537;DHT22;14204;51.262;5.488;2023-07-30T00:16:08;19.10;99.90
26537;DHT22;14204;51.262;5.488;2023-07-30T00:18:33;19.10;99.90
26537;DHT22;14204;51.262;5.488;2023-07-30T00:20:59;19.00;99.90
26537;DHT22;14204;51.262;5.488;2023-07-30T00:23:25;19.00;99.90
26537;DHT22;14204;51.262;5.488;2023-07-30T00:25:50;19.00;99.90
26537;DHT22;14204;51.262;5.488;2023-07-30T00:28:16;18.90;99.90
26537;DHT22;14204;51.262;5.488;2023-07-30T00:30:42;18.90;99.90
26537;DHT22;14204;51.262;5.488;2023-07-30T00:33:07;18.90;99.90
26537;DHT22;14204;51.262;5.488;2023-07-30T00:35:33;18.90;99.90
26537;DHT22;14204;51.262;5.488;2023-07-30T00:37:59;18.90;99.90
26537;DHT22;14204;51.262;5.488;2023-07-30T00:40:24;18.80;99.90
26537;DHT22;14204;51.262;5.488;2023-07-30T00:42:50;18.80;99.90
26537;DHT22;14204;51.262;5.488;2023-07-30T00:45:16;18.80;99.90
26537;DHT22;14204;51.262;5.488;2023-07-30T00:47:43;18.80;99.90
26537;DHT22;14204;51.262;5.488;2023-07-30T00:50:10;18.70;99.90
26537;DHT22;14204;51.262;5.488;2023-07-30T00:52:38;18.70;99.90
26537;DHT22;14204;51.262;5.488;2023-07-30T00:55:07;18.70;99.90
26537;DHT22;14204;51.262;5.488;2023-07-30T00:57:33;18.70;99.90
26537;DHT22;14204;51.262;5.488;2023-07-30T01:00:00;18.60;99.90
26537;DHT22;14204;51.262;5.488;2023-07-30T01:02:29;18.70;99.90
26537;DHT22;14204;51.262;5.488;2023-07-30T01:04:57;18.60;99.90
26537;DHT22;14204;51.262;5.488;2023-07-30T01:07:22;18.50;99.90
26537;DHT22;14204;51.262;5.488;2023-07-30T01:09:48;18.50;99.90
26537;DHT22;14204;51.262;5.488;2023-07-30T01:12:14;18.40;99.90
26537;DHT22;14204;51.262;5.488;2023-07-30T01:14:40;18.40;99.90
26537;DHT22;14204;51.262;5.488;2023-07-30T01:17:07;18.30;99.90
26537;DHT22;14204;51.262;5.488;2023-07-30T01:19:32;18.40;99.90
26537;DHT22;14204;51.262;5.488;2023-07-30T01:21:58;18.40;99.90
26537;DHT22;14204;51.262;5.488;2023-07-30T01:24:24;18.30;99.90
26537;DHT22;14204;51.262;5.488;2023-07-30T01:26:56;18.30;99.90
26537;DHT22;14204;51.262;5.488;2023-07-30T01:29:32;18.30;99.90
26537;DHT22;14204;51.262;5.488;2023-07-30T01:32:03;18.20;99.90
26537;DHT22;14204;51.262;5.488;2023-07-30T01:34:30;18.20;99.90
26537;DHT22;14204;51.262;5.488;2023-07-30T01:37:00;18.20;99.90
26537;DHT22;14204;51.262;5.488;2023-07-30T01:39:27;18.30;99.90
26537;DHT22;14204;51.262;5.488;2023-07-30T01:41:56;18.30;99.90
26537;DHT22;14204;51.262;5.488;2023-07-30T01:44:22;18.30;99.90
26537;DHT22;14204;51.262;5.488;2023-07-30T01:46:47;18.30;99.90
26537;DHT22;14204;51.262;5.488;2023-07-30T01:49:13;18.20;99.90
26537;DHT22;14204;51.262;5.488;2023-07-30T01:51:39;18.20;99.90
26537;DHT22;14204;51.262;5.488;2023-07-30T01:54:05;18.20;99.90
26537;DHT22;14204;51.262;5.488;2023-07-30T01:56:30;18.10;99.90
26537;DHT22;14204;51.262;5.488;2023-07-30T01:58:56;18.10;99.90
26537;DHT22;14204;51.262;5.488;2023-07-30T02:01:22;18.10;99.90
26537;DHT22;14204;51.262;5.488;2023-07-30T02:03:48;18.00;99.90
26537;DHT22;14204;51.262;5.488;2023-07-30T02:06:14;18.00;99.90
26537;DHT22;14204;51.262;5.488;2023-07-30T02:08:39;18.00;99.90
26537;DHT22;14204;51.262;5.488;2023-07-30T02:11:05;17.90;99.90
26537;DHT22;14204;51.262;5.488;2023-07-30T02:13:30;17.70;99.90
26537;DHT22;14204;51.262;5.488;2023-07-30T02:15:56;17.80;99.90
26537;DHT22;14204;51.262;5.488;2023-07-30T02:18:22;17.90;99.90
26537;DHT22;14204;51.262;5.488;2023-07-30T02:20:48;17.80;99.90
26537;DHT22;14204;51.262;5.488;2023-07-30T02:23:16;17.80;99.90
26537;DHT22;14204;51.262;5.488;2023-07-30T02:25:42;17.80;99.90
26537;DHT22;14204;51.262;5.488;2023-07-30T02:28:08;17.90;99.90
26537;DHT22;14204;51.262;5.488;2023-07-30T02:30:34;17.90;99.90
26537;DHT22;14204;51.262;5.488;2023-07-30T02:33:00;17.90;99.90
26537;DHT22;14204;51.262;5.488;2023-07-30T02:35:26;17.90;99.90
26537;DHT22;14204;51.262;5.488;2023-07-30T02:37:51;17.90;99.90
26537;DHT22;14204;51.262;5.488;2023-07-30T02:40:17;17.90;99.90
26537;DHT22;14204;51.262;5.488;2023-07-30T02:42:42;18.00;99.90
26537;DHT22;14204;51.262;5.488;2023-07-30T02:45:08;18.00;99.90
26537;DHT22;14204;51.262;5.488;2023-07-30T02:47:34;18.00;99.90
26537;DHT22;14204;51.262;5.488;2023-07-30T02:50:00;18.00;99.90
26537;DHT22;14204;51.262;5.488;2023-07-30T02:52:25;18.00;99.90
26537;DHT22;14204;51.262;5.488;2023-07-30T02:54:51;18.00;99.90
26537;DHT22;14204;51.262;5.488;2023-07-30T02:57:17;17.90;99.90
26537;DHT22;14204;51.262;5.488;2023-07-30T02:59:43;17.90;99.90
26537;DHT22;14204;51.262;5.488;2023-07-30T03:02:08;17.70;99.90
26537;DHT22;14204;51.262;5.488;2023-07-30T03:04:34;17.70;99.90
26537;DHT22;14204;51.262;5.488;2023-07-30T03:07:00;17.70;99.90
26537;DHT22;14204;51.262;5.488;2023-07-30T03:09:27;17.80;99.90
26537;DHT22;14204;51.262;5.488;2023-07-30T03:11:53;17.80;99.90
26537;DHT22;14204;51.262;5.488;2023-07-30T03:14:19;17.80;99.90
26537;DHT22;14204;51.262;5.488;2023-07-30T03:16:49;17.80;99.90
26537;DHT22;14204;51.262;5.488;2023-07-30T03:19:15;17.80;99.90
26537;DHT22;14204;51.262;5.488;2023-07-30T03:21:41;17.80;99.90
26537;DHT22;14204;51.262;5.488;2023-07-30T03:24:06;17.80;99.90
26537;DHT22;14204;51.262;5.488;2023-07-30T03:26:32;17.90;99.90
26537;DHT22;14204;51.262;5.488;2023-07-30T03:28:58;17.80;99.90
26537;DHT22;14204;51.262;5.488;2023-07-30T03:31:23;17.90;99.90
26537;DHT22;14204;51.262;5.488;2023-07-30T03:33:49;18.00;99.90
26537;DHT22;14204;51.262;5.488;2023-07-30T03:36:15;18.00;99.90
26537;DHT22;14204;51.262;5.488;2023-07-30T03:38:41;18.00;99.90
26537;DHT22;14204;51.262;5.488;2023-07-30T03:41:08;18.00;99.90
26537;DHT22;14204;51.262;5.488;2023-07-30T03:43:34;18.00;99.90
26537;DHT22;14204;51.262;5.488;2023-07-30T03:46:00;18.00;99.90
26537;DHT22;14204;51.262;5.488;2023-07-30T03:48:26;18.10;99.90
26537;DHT22;14204;51.262;5.488;2023-07-30T03:50:55;18.10;99.90
26537;DHT22;14204;51.262;5.488;2023-07-30T03:53:22;18.10;99.90
26537;DHT22;14204;51.262;5.488;2023-07-30T03:55:48;18.10;99.90
26537;DHT22;14204;51.262;5.488;2023-07-30T03:58:13;18.10;99.90
26537;DHT22;14204;51.262;5.488;2023-07-30T04:00:39;18.00;99.90
26537;DHT22;14204;51.262;5.488;2023-07-30T04:03:05;18.10;99.90
26537;DHT22;14204;51.262;5.488;2023-07-30T04:05:31;18.10;99.90
26537;DHT22;14204;51.262;5.488;2023-07-30T04:07:57;18.10;99.90
26537;DHT22;14204;51.262;5.488;2023-07-30T04:10:23;18.10;99.90
26537;DHT22;14204;51.262;5.488;2023-07-30T04:12:49;18.20;99.90
26537;DHT22;14204;51.262;5.488;2023-07-30T04:15:15;18.20;99.90
26537;DHT22;14204;51.262;5.488;2023-07-30T04:17:42;18.20;99.90
26537;DHT22;14204;51.262;5.488;2023-07-30T04:20:08;18.30;99.90
26537;DHT22;14204;51.262;5.488;2023-07-30T04:22:37;18.20;99.90
26537;DHT22;14204;51.262;5.488;2023-07-30T04:25:03;18.30;99.90
26537;DHT22;14204;51.262;5.488;2023-07-30T04:27:29;18.30;99.90
26537;DHT22;14204;51.262;5.488;2023-07-30T04:29:55;18.40;99.90
26537;DHT22;14204;51.262;5.488;2023-07-30T04:32:21;18.40;99.90
26537;DHT22;14204;51.262;5.488;2023-07-30T04:34:46;18.30;99.90
26537;DHT22;14204;51.262;5.488;2023-07-30T04:37:12;18.30;99.90
26537;DHT22;14204;51.262;5.488;2023-07-30T04:39:38;18.30;99.90
26537;DHT22;14204;51.262;5.488;2023-07-30T04:42:03;18.30;99.90
26537;DHT22;14204;51.262;5.488;2023-07-30T04:44:29;18.30;99.90
26537;DHT22;14204;51.262;5.488;2023-07-30T04:46:55;18.40;99.90
26537;DHT22;14204;51.262;5.488;2023-07-30T04:49:21;18.40;99.90
26537;DHT22;14204;51.262;5.488;2023-07-30T04:51:46;18.40;99.90
26537;DHT22;14204;51.262;5.488;2023-07-30T04:54:12;18.50;99.90
26537;DHT22;14204;51.262;5.488;2023-07-30T04:56:38;18.50;99.90
26537;DHT22;14204;51.262;5.488;2023-07-30T04:59:03;18.50;99.90
26537;DHT22;14204;51.262;5.488;2023-07-30T05:01:29;18.60;99.90
26537;DHT22;14204;51.262;5.488;2023-07-30T05:03:56;18.50;99.90
26537;DHT22;14204;51.262;5.488;2023-07-30T05:06:23;18.50;99.90
26537;DHT22;14204;51.262;5.488;2023-07-30T05:08:48;18.50;99.90
26537;DHT22;14204;51.262;5.488;2023-07-30T05:11:14;18.50;99.90
26537;DHT22;14204;51.262;5.488;2023-07-30T05:13:41;18.50;99.90
26537;DHT22;14204;51.262;5.488;2023-07-30T05:16:06;18.50;99.90
26537;DHT22;14204;51.262;5.488;2023-07-30T05:18:32;18.60;99.90
26537;DHT22;14204;51.262;5.488;2023-07-30T05:20:58;18.70;99.90
26537;DHT22;14204;51.262;5.488;2023-07-30T05:23:23;18.70;99.90
26537;DHT22;14204;51.262;5.488;2023-07-30T05:25:49;18.80;99.90
26537;DHT22;14204;51.262;5.488;2023-07-30T05:28:15;18.70;99.90
26537;DHT22;14204;51.262;5.488;2023-07-30T05:30:41;18.80;99.90
26537;DHT22;14204;51.262;5.488;2023-07-30T05:33:06;18.80;99.90
26537;DHT22;14204;51.262;5.488;2023-07-30T05:35:32;18.80;99.90
26537;DHT22;14204;51.262;5.488;2023-07-30T05:37:58;18.80;99.90
26537;DHT22;14204;51.262;5.488;2023-07-30T05:40:23;18.80;99.90
26537;DHT22;14204;51.262;5.488;2023-07-30T05:42:49;18.90;99.90
26537;DHT22;14204;51.262;5.488;2023-07-30T05:48:37;18.90;99.90
26537;DHT22;14204;51.262;5.488;2023-07-30T05:51:03;18.90;99.90
26537;DHT22;14204;51.262;5.488;2023-07-30T05:53:28;18.90;99.90
26537;DHT22;14204;51.262;5.488;2023-07-30T05:55:54;19.00;99.90
26537;DHT22;14204;51.262;5.488;2023-07-30T05:58:20;18.90;99.90
26537;DHT22;14204;51.262;5.488;2023-07-30T06:00:45;18.90;99.90
26537;DHT22;14204;51.262;5.488;2023-07-30T06:03:11;18.90;99.90
26537;DHT22;14204;51.262;5.488;2023-07-30T06:05:43;19.00;99.90
26537;DHT22;14204;51.262;5.488;2023-07-30T06:08:09;19.00;99.90
26537;DHT22;14204;51.262;5.488;2023-07-30T06:10:38;19.00;99.90
26537;DHT22;14204;51.262;5.488;2023-07-30T06:13:04;19.10;99.90
26537;DHT22;14204;51.262;5.488;2023-07-30T06:15:31;19.00;99.90
26537;DHT22;14204;51.262;5.488;2023-07-30T06:17:57;19.00;99.90
26537;DHT22;14204;51.262;5.488;2023-07-30T06:20:23;19.00;99.90
26537;DHT22;14204;51.262;5.488;2023-07-30T06:22:48;19.00;99.90
26537;DHT22;14204;51.262;5.488;2023-07-30T06:25:14;19.10;99.90
26537;DHT22;14204;51.262;5.488;2023-07-30T06:27:40;19.00;99.90
26537;DHT22;14204;51.262;5.488;2023-07-30T06:30:06;19.00;99.90
26537;DHT22;14204;51.262;5.488;2023-07-30T06:32:32;19.00;99.90
26537;DHT22;14204;51.262;5.488;2023-07-30T06:34:57;19.10;99.90
26537;DHT22;14204;51.262;5.488;2023-07-30T06:37:23;19.00;99.90
26537;DHT22;14204;51.262;5.488;2023-07-30T06:39:49;19.00;99.90
26537;DHT22;14204;51.262;5.488;2023-07-30T06:42:15;19.10;99.90
26537;DHT22;14204;51.262;5.488;2023-07-30T06:44:40;19.10;99.90
26537;DHT22;14204;51.262;5.488;2023-07-30T06:47:06;19.10;99.90
26537;DHT22;14204;51.262;5.488;2023-07-30T06:49:31;19.10;99.90
26537;DHT22;14204;51.262;5.488;2023-07-30T06:52:00;19.10;99.90
26537;DHT22;14204;51.262;5.488;2023-07-30T06:54:25;19.20;99.90
26537;DHT22;14204;51.262;5.488;2023-07-30T06:56:51;19.20;99.90
26537;DHT22;14204;51.262;5.488;2023-07-30T06:59:17;19.20;99.90
26537;DHT22;14204;51.262;5.488;2023-07-30T07:01:42;19.20;99.90
26537;DHT22;14204;51.262;5.488;2023-07-30T07:04:08;19.20;99.90
26537;DHT22;14204;51.262;5.488;2023-07-30T07:06:34;19.20;99.90
26537;DHT22;14204;51.262;5.488;2023-07-30T07:09:00;19.30;99.90
26537;DHT22;14204;51.262;5.488;2023-07-30T07:11:26;19.40;99.90
26537;DHT22;14204;51.262;5.488;2023-07-30T07:13:52;19.50;99.90
26537;DHT22;14204;51.262;5.488;2023-07-30T07:16:19;19.60;99.90
26537;DHT22;14204;51.262;5.488;2023-07-30T07:18:45;19.50;99.90
26537;DHT22;14204;51.262;5.488;2023-07-30T07:21:11;19.40;99.90
26537;DHT22;14204;51.262;5.488;2023-07-30T07:23:37;19.40;99.90
26537;DHT22;14204;51.262;5.488;2023-07-30T07:26:03;19.30;99.90
26537;DHT22;14204;51.262;5.488;2023-07-30T07:28:28;19.30;99.90
26537;DHT22;14204;51.262;5.488;2023-07-30T07:30:55;19.40;99.90
26537;DHT22;14204;51.262;5.488;2023-07-30T07:33:21;19.50;99.90
26537;DHT22;14204;51.262;5.488;2023-07-30T07:35:47;19.60;99.90
26537;DHT22;14204;51.262;5.488;2023-07-30T07:38:13;19.60;99.90
26537;DHT22;14204;51.262;5.488;2023-07-30T07:40:39;19.70;99.90
26537;DHT22;14204;51.262;5.488;2023-07-30T07:43:06;19.70;99.90
26537;DHT22;14204;51.262;5.488;2023-07-30T07:45:32;19.80;99.90
26537;DHT22;14204;51.262;5.488;2023-07-30T07:47:57;19.90;99.90
26537;DHT22;14204;51.262;5.488;2023-07-30T07:50:23;19.90;99.90
26537;DHT22;14204;51.262;5.488;2023-07-30T07:52:49;19.90;99.90
26537;DHT22;14204;51.262;5.488;2023-07-30T07:55:15;20.00;99.90
26537;DHT22;14204;51.262;5.488;2023-07-30T07:57:40;20.00;99.90
26537;DHT22;14204;51.262;5.488;2023-07-30T08:00:06;20.00;99.90
26537;DHT22;14204;51.262;5.488;2023-07-30T08:02:32;20.00;99.90
26537;DHT22;14204;51.262;5.488;2023-07-30T08:04:58;20.10;99.90
26537;DHT22;14204;51.262;5.488;2023-07-30T08:07:23;20.20;99.90
26537;DHT22;14204;51.262;5.488;2023-07-30T08:09:49;20.20;99.90
26537;DHT22;14204;51.262;5.488;2023-07-30T08:12:18;20.30;99.90
26537;DHT22;14204;51.262;5.488;2023-07-30T08:14:44;20.30;99.90
26537;DHT22;14204;51.262;5.488;2023-07-30T08:17:10;20.30;99.90
26537;DHT22;14204;51.262;5.488;2023-07-30T08:19:35;20.30;99.90
26537;DHT22;14204;51.262;5.488;2023-07-30T08:22:01;20.50;99.90
26537;DHT22;14204;51.262;5.488;2023-07-30T08:24:27;20.70;99.90
26537;DHT22;14204;51.262;5.488;2023-07-30T08:26:52;20.70;99.90
26537;DHT22;14204;51.262;5.488;2023-07-30T08:29:18;20.80;99.90
26537;DHT22;14204;51.262;5.488;2023-07-30T08:31:44;20.90;99.90
26537;DHT22;14204;51.262;5.488;2023-07-30T08:34:09;20.80;99.90
26537;DHT22;14204;51.262;5.488;2023-07-30T08:36:35;20.90;99.90
26537;DHT22;14204;51.262;5.488;2023-07-30T08:39:01;20.90;99.90
26537;DHT22;14204;51.262;5.488;2023-07-30T08:41:29;20.60;99.90
26537;DHT22;14204;51.262;5.488;2023-07-30T08:43:54;20.50;99.90
26537;DHT22;14204;51.262;5.488;2023-07-30T08:46:20;20.50;99.90
26537;DHT22;14204;51.262;5.488;2023-07-30T08:48:46;20.40;99.90
26537;DHT22;14204;51.262;5.488;2023-07-30T08:51:21;20.50;99.90
26537;DHT22;14204;51.262;5.488;2023-07-30T08:53:47;20.70;99.90
26537;DHT22;14204;51.262;5.488;2023-07-30T08:56:13;20.60;99.90
26537;DHT22;14204;51.262;5.488;2023-07-30T08:58:40;20.80;99.90
26537;DHT22;14204;51.262;5.488;2023-07-30T09:01:08;21.00;99.90
26537;DHT22;14204;51.262;5.488;2023-07-30T09:03:38;21.20;99.90
26537;DHT22;14204;51.262;5.488;2023-07-30T09:06:04;21.10;99.90
26537;DHT22;14204;51.262;5.488;2023-07-30T09:08:29;21.20;99.90
26537;DHT22;14204;51.262;5.488;2023-07-30T09:10:59;21.20;99.90
26537;DHT22;14204;51.262;5.488;2023-07-30T09:13:39;21.30;99.90
26537;DHT22;14204;51.262;5.488;2023-07-30T09:16:09;21.40;99.90
26537;DHT22;14204;51.262;5.488;2023-07-30T09:18:46;21.40;99.90
26537;DHT22;14204;51.262;5.488;2023-07-30T09:21:12;21.40;99.90
26537;DHT22;14204;51.262;5.488;2023-07-30T09:23:42;21.40;99.90
26537;DHT22;14204;51.262;5.488;2023-07-30T09:26:09;21.40;99.90
26537;DHT22;14204;51.262;5.488;2023-07-30T09:28:35;21.40;99.90
26537;DHT22;14204;51.262;5.488;2023-07-30T09:31:05;21.50;99.90
26537;DHT22;14204;51.262;5.488;2023-07-30T09:33:32;21.40;99.90
26537;DHT22;14204;51.262;5.488;2023-07-30T09:36:01;21.40;99.90
26537;DHT22;14204;51.262;5.488;2023-07-30T09:38:26;21.50;99.90
26537;DHT22;14204;51.262;5.488;2023-07-30T09:41:01;21.50;99.90
26537;DHT22;14204;51.262;5.488;2023-07-30T09:43:32;21.60;99.90
26537;DHT22;14204;51.262;5.488;2023-07-30T09:46:07;21.70;99.90
26537;DHT22;14204;51.262;5.488;2023-07-30T09:48:34;21.70;99.90
26537;DHT22;14204;51.262;5.488;2023-07-30T09:51:02;22.00;99.90
26537;DHT22;14204;51.262;5.488;2023-07-30T09:53:32;22.20;99.90
26537;DHT22;14204;51.262;5.488;2023-07-30T09:56:05;22.50;99.90
26537;DHT22;14204;51.262;5.488;2023-07-30T09:58:32;22.80;99.90
26537;DHT22;14204;51.262;5.488;2023-07-30T10:00:59;23.00;99.90
26537;DHT22;14204;51.262;5.488;2023-07-30T10:03:26;23.00;99.90
26537;DHT22;14204;51.262;5.488;2023-07-30T10:05:56;23.10;99.90
26537;DHT22;14204;51.262;5.488;2023-07-30T10:08:30;23.20;99.90
26537;DHT22;14204;51.262;5.488;2023-07-30T10:10:57;23.10;99.90
26537;DHT22;14204;51.262;5.488;2023-07-30T10:13:26;23.00;99.90
26537;DHT22;14204;51.262;5.488;2023-07-30T10:15:52;22.90;99.90
26537;DHT22;14204;51.262;5.488;2023-07-30T10:18:18;22.90;99.90
26537;DHT22;14204;51.262;5.488;2023-07-30T10:20:54;22.80;99.90
26537;DHT22;14204;51.262;5.488;2023-07-30T10:23:27;22.80;99.90
26537;DHT22;14204;51.262;5.488;2023-07-30T10:25:53;22.80;99.90
26537;DHT22;14204;51.262;5.488;2023-07-30T10:30:56;22.70;99.90
26537;DHT22;14204;51.262;5.488;2023-07-30T10:33:22;22.80;99.90
26537;DHT22;14204;51.262;5.488;2023-07-30T10:35:48;22.90;99.90
26537;DHT22;14204;51.262;5.488;2023-07-30T10:38:27;22.80;99.90
26537;DHT22;14204;51.262;5.488;2023-07-30T10:41:07;22.70;99.90
26537;DHT22;14204;51.262;5.488;2023-07-30T10:43:42;22.70;99.90
26537;DHT22;14204;51.262;5.488;2023-07-30T10:46:11;22.90;99.90
26537;DHT22;14204;51.262;5.488;2023-07-30T10:48:38;23.00;99.90
26537;DHT22;14204;51.262;5.488;2023-07-30T10:51:06;23.10;99.90
26537;DHT22;14204;51.262;5.488;2023-07-30T10:53:32;23.20;99.90
26537;DHT22;14204;51.262;5.488;2023-07-30T10:56:05;23.30;99.90
26537;DHT22;14204;51.262;5.488;2023-07-30T10:58:32;23.30;99.90
26537;DHT22;14204;51.262;5.488;2023-07-30T11:00:59;23.60;99.90
26537;DHT22;14204;51.262;5.488;2023-07-30T11:03:27;23.80;99.90
26537;DHT22;14204;51.262;5.488;2023-07-30T11:05:53;23.80;99.90
26537;DHT22;14204;51.262;5.488;2023-07-30T11:08:21;24.10;99.90
26537;DHT22;14204;51.262;5.488;2023-07-30T11:10:47;24.10;99.90
26537;DHT22;14204;51.262;5.488;2023-07-30T11:13:16;24.30;99.90
26537;DHT22;14204;51.262;5.488;2023-07-30T11:15:43;24.40;99.90
26537;DHT22;14204;51.262;5.488;2023-07-30T11:18:09;24.50;99.90
26537;DHT22;14204;51.262;5.488;2023-07-30T11:20:35;24.40;99.90
26537;DHT22;14204;51.262;5.488;2023-07-30T11:23:02;24.40;99.90
26537;DHT22;14204;51.262;5.488;2023-07-30T11:25:28;24.60;99.90
26537;DHT22;14204;51.262;5.488;2023-07-30T11:27:53;24.70;99.90
26537;DHT22;14204;51.262;5.488;2023-07-30T11:30:19;24.40;99.90
26537;DHT22;14204;51.262;5.488;2023-07-30T11:32:45;24.40;99.90
26537;DHT22;14204;51.262;5.488;2023-07-30T11:35:12;24.20;99.90
26537;DHT22;14204;51.262;5.488;2023-07-30T11:37:39;24.40;99.90
26537;DHT22;14204;51.262;5.488;2023-07-30T11:40:08;24.40;99.90
26537;DHT22;14204;51.262;5.488;2023-07-30T11:42:35;24.50;99.90
26537;DHT22;14204;51.262;5.488;2023-07-30T11:45:22;24.50;99.90
26537;DHT22;14204;51.262;5.488;2023-07-30T11:47:48;24.50;99.90
26537;DHT22;14204;51.262;5.488;2023-07-30T11:50:15;24.80;99.90
26537;DHT22;14204;51.262;5.488;2023-07-30T11:53:07;25.00;99.90
26537;DHT22;14204;51.262;5.488;2023-07-30T11:55:40;24.80;99.90
26537;DHT22;14204;51.262;5.488;2023-07-30T11:58:08;24.90;99.90
26537;DHT22;14204;51.262;5.488;2023-07-30T12:00:40;25.00;99.90
26537;DHT22;14204;51.262;5.488;2023-07-30T12:03:10;24.90;99.90
26537;DHT22;14204;51.262;5.488;2023-07-30T12:05:38;25.10;99.90
26537;DHT22;14204;51.262;5.488;2023-07-30T12:08:06;25.10;99.90
26537;DHT22;14204;51.262;5.488;2023-07-30T12:10:43;25.20;99.90
26537;DHT22;14204;51.262;5.488;2023-07-30T12:13:16;25.00;99.90
26537;DHT22;14204;51.262;5.488;2023-07-30T12:15:44;24.90;99.90
26537;DHT22;14204;51.262;5.488;2023-07-30T12:18:10;24.80;99.90
26537;DHT22;14204;51.262;5.488;2023-07-30T12:20:35;24.60;99.90
26537;DHT22;14204;51.262;5.488;2023-07-30T12:23:01;24.40;99.90
26537;DHT22;14204;51.262;5.488;2023-07-30T12:25:28;24.40;99.90
26537;DHT22;14204;51.262;5.488;2023-07-30T12:27:54;24.30;99.90
26537;DHT22;14204;51.262;5.488;2023-07-30T12:30:20;24.30;99.90
26537;DHT22;14204;51.262;5.488;2023-07-30T12:32:45;24.20;99.90
26537;DHT22;14204;51.262;5.488;2023-07-30T12:35:11;24.20;99.90
26537;DHT22;14204;51.262;5.488;2023-07-30T12:37:37;24.60;99.90
26537;DHT22;14204;51.262;5.488;2023-07-30T12:40:02;24.80;99.90
26537;DHT22;14204;51.262;5.488;2023-07-30T12:42:29;25.00;99.90
26537;DHT22;14204;51.262;5.488;2023-07-30T12:44:55;24.90;99.90
26537;DHT22;14204;51.262;5.488;2023-07-30T12:47:20;24.70;99.90
26537;DHT22;14204;51.262;5.488;2023-07-30T12:49:46;24.60;99.90
26537;DHT22;14204;51.262;5.488;2023-07-30T12:52:12;25.00;99.90
26537;DHT22;14204;51.262;5.488;2023-07-30T12:54:37;24.90;99.90
26537;DHT22;14204;51.262;5.488;2023-07-30T12:57:03;24.80;99.90
26537;DHT22;14204;51.262;5.488;2023-07-30T12:59:29;24.60;99.90
26537;DHT22;14204;51.262;5.488;2023-07-30T13:01:56;24.40;99.90
26537;DHT22;14204;51.262;5.488;2023-07-30T13:04:24;24.10;99.90
26537;DHT22;14204;51.262;5.488;2023-07-30T13:06:53;23.90;99.90
26537;DHT22;14204;51.262;5.488;2023-07-30T13:09:19;23.80;99.90
26537;DHT22;14204;51.262;5.488;2023-07-30T13:11:44;23.40;99.90
26537;DHT22;14204;51.262;5.488;2023-07-30T13:14:10;23.60;99.90
26537;DHT22;14204;51.262;5.488;2023-07-30T13:16:36;23.70;99.90
26537;DHT22;14204;51.262;5.488;2023-07-30T13:19:02;24.00;99.90
26537;DHT22;14204;51.262;5.488;2023-07-30T13:21:27;24.10;99.90
26537;DHT22;14204;51.262;5.488;2023-07-30T13:23:53;24.10;99.90
26537;DHT22;14204;51.262;5.488;2023-07-30T13:26:19;24.10;99.90
26537;DHT22;14204;51.262;5.488;2023-07-30T13:28:44;24.10;99.90
26537;DHT22;14204;51.262;5.488;2023-07-30T13:31:10;24.00;99.90
26537;DHT22;14204;51.262;5.488;2023-07-30T13:33:36;24.00;99.90
26537;DHT22;14204;51.262;5.488;2023-07-30T13:36:02;24.30;99.90
26537;DHT22;14204;51.262;5.488;2023-07-30T13:38:28;24.30;99.90
26537;DHT22;14204;51.262;5.488;2023-07-30T13:40:54;24.10;99.90
26537;DHT22;14204;51.262;5.488;2023-07-30T13:43:20;24.10;99.90
26537;DHT22;14204;51.262;5.488;2023-07-30T13:45:46;24.20;99.90
26537;DHT22;14204;51.262;5.488;2023-07-30T13:48:19;24.30;99.90
26537;DHT22;14204;51.262;5.488;2023-07-30T13:50:44;24.40;99.90
26537;DHT22;14204;51.262;5.488;2023-07-30T13:53:10;24.40;99.90
26537;DHT22;14204;51.262;5.488;2023-07-30T13:55:36;24.70;99.90
26537;DHT22;14204;51.262;5.488;2023-07-30T13:58:01;24.80;99.90
26537;DHT22;14204;51.262;5.488;2023-07-30T14:00:29;24.60;99.90
26537;DHT22;14204;51.262;5.488;2023-07-30T14:02:54;24.50;99.90
26537;DHT22;14204;51.262;5.488;2023-07-30T14:05:20;24.80;99.90
26537;DHT22;14204;51.262;5.488;2023-07-30T14:07:46;24.80;99.90
26537;DHT22;14204;51.262;5.488;2023-07-30T14:10:12;25.10;99.90
26537;DHT22;14204;51.262;5.488;2023-07-30T14:12:38;25.10;99.90
26537;DHT22;14204;51.262;5.488;2023-07-30T14:15:03;25.10;99.90
26537;DHT22;14204;51.262;5.488;2023-07-30T14:17:29;25.10;99.90
26537;DHT22;14204;51.262;5.488;2023-07-30T14:19:55;25.30;99.90
26537;DHT22;14204;51.262;5.488;2023-07-30T14:22:21;25.20;99.90
26537;DHT22;14204;51.262;5.488;2023-07-30T14:24:47;25.00;99.90
26537;DHT22;14204;51.262;5.488;2023-07-30T14:27:12;24.90;99.90
26537;DHT22;14204;51.262;5.488;2023-07-30T14:29:38;25.10;99.90
26537;DHT22;14204;51.262;5.488;2023-07-30T14:32:04;25.10;99.90
26537;DHT22;14204;51.262;5.488;2023-07-30T14:34:30;25.10;99.90
26537;DHT22;14204;51.262;5.488;2023-07-30T14:36:56;25.00;99.90
26537;DHT22;14204;51.262;5.488;2023-07-30T14:39:22;24.90;99.90
26537;DHT22;14204;51.262;5.488;2023-07-30T14:41:48;25.00;99.90
26537;DHT22;14204;51.262;5.488;2023-07-30T14:44:14;25.20;99.90
26537;DHT22;14204;51.262;5.488;2023-07-30T14:46:40;25.20;99.90
26537;DHT22;14204;51.262;5.488;2023-07-30T14:49:06;25.30;99.90
26537;DHT22;14204;51.262;5.488;2023-07-30T14:51:32;25.20;99.90
26537;DHT22;14204;51.262;5.488;2023-07-30T14:53:57;25.00;99.90
26537;DHT22;14204;51.262;5.488;2023-07-30T14:56:23;25.20;99.90
26537;DHT22;14204;51.262;5.488;2023-07-30T14:58:48;25.10;99.90
26537;DHT22;14204;51.262;5.488;2023-07-30T15:01:14;25.00;99.90
26537;DHT22;14204;51.262;5.488;2023-07-30T15:03:40;25.10;99.90
26537;DHT22;14204;51.262;5.488;2023-07-30T15:06:05;25.10;99.90
26537;DHT22;14204;51.262;5.488;2023-07-30T15:08:31;25.10;99.90
26537;DHT22;14204;51.262;5.488;2023-07-30T15:10:57;25.00;99.90
26537;DHT22;14204;51.262;5.488;2023-07-30T15:13:23;24.90;99.90
26537;DHT22;14204;51.262;5.488;2023-07-30T15:15:50;24.80;99.90
26537;DHT22;14204;51.262;5.488;2023-07-30T15:18:16;24.90;99.90
26537;DHT22;14204;51.262;5.488;2023-07-30T15:20:42;24.90;99.90
26537;DHT22;14204;51.262;5.488;2023-07-30T15:23:07;24.90;99.90
26537;DHT22;14204;51.262;5.488;2023-07-30T15:25:34;24.80;99.90
26537;DHT22;14204;51.262;5.488;2023-07-30T15:28:00;25.00;99.90
26537;DHT22;14204;51.262;5.488;2023-07-30T15:30:27;25.00;99.90
26537;DHT22;14204;51.262;5.488;2023-07-30T15:32:52;24.90;99.90